Time;durP1;ratioP1;P1;durP2;ratioP2;P2;SDS_P1;SDS_P2;PMS_P1;PMS_P2;Temp;Humidity;BMP_temperature;BMP_pressure;BME280_temperature;BME280_humidity;BME280_pressure;Samples;Min_cycle;Max_cycle;Signal;HPM_P1;HPM_P2
2023/12/18 00:00:18;;;;;;;8.33;5.70;;;;;;;;;;5046211;28;20204;-64
2023/12/18 00:02:45;;;;;;;6.80;4.97;;;;;;;;;;5049116;28;20203;-70
2023/12/18 00:05:13;;;;;;;7.83;5.60;;;;;;;;;;5042240;28;20200;-72
2023/12/18 00:07:40;;;;;;;7.87;5.20;;;;;;;;;;5041914;28;20196;-71
2023/12/18 00:10:07;;;;;;;5.97;5.00;;;;;;;;;;5045059;28;20203;-70
2023/12/18 00:12:36;;;;;;;8.57;5.63;;;;;;;;;;5041698;28;20208;-71
2023/12/18 00:15:03;;;;;;;7.80;5.80;;;;;;;;;;5045833;28;20203;-71
2023/12/18 00:17:30;;;;;;;5.43;4.93;;;;;;;;;;5043592;28;20204;-70
2023/12/18 00:19:58;;;;;;;7.97;5.53;;;;;;;;;;5039684;28;20206;-72
2023/12/18 00:22:26;;;;;;;6.83;5.63;;;;;;;;;;5041083;28;20273;-71
2023/12/18 00:24:53;;;;;;;8.03;5.57;;;;;;;;;;5041769;28;20225;-71
2023/12/18 00:27:20;;;;;;;8.20;5.50;;;;;;;;;;5038821;28;20226;-72
2023/12/18 00:29:48;;;;;;;7.07;5.40;;;;;;;;;;5043308;28;20223;-71
2023/12/18 00:32:15;;;;;;;7.13;6.07;;;;;;;;;;5039420;28;20536;-71
2023/12/18 00:34:43;;;;;;;7.57;6.37;;;;;;;;;;5045330;28;20199;-71
2023/12/18 00:37:11;;;;;;;10.47;6.70;;;;;;;;;;5039620;28;20200;-71
2023/12/18 00:39:38;;;;;;;8.90;6.57;;;;;;;;;;5040682;28;20220;-71
2023/12/18 00:42:05;;;;;;;7.43;6.50;;;;;;;;;;5043622;28;20226;-70
2023/12/18 00:44:32;;;;;;;7.13;6.00;;;;;;;;;;5039022;28;20203;-71
2023/12/18 00:47:02;;;;;;;7.63;6.30;;;;;;;;;;5041185;28;20204;-71
2023/12/18 00:49:31;;;;;;;10.17;5.97;;;;;;;;;;5043294;28;20363;-71
2023/12/18 00:51:59;;;;;;;17.37;6.57;;;;;;;;;;5039781;28;20230;-71
2023/12/18 00:54:26;;;;;;;14.80;6.20;;;;;;;;;;5039767;28;20239;-72
2023/12/18 00:56:53;;;;;;;21.40;6.07;;;;;;;;;;5041224;28;20200;-71
2023/12/18 00:59:20;;;;;;;31.40;7.30;;;;;;;;;;5042260;28;20228;-72
2023/12/18 01:01:47;;;;;;;46.87;6.67;;;;;;;;;;5037393;28;20195;-72
2023/12/18 01:04:16;;;;;;;21.70;6.50;;;;;;;;;;5040517;28;20203;-71
2023/12/18 01:06:43;;;;;;;12.37;5.83;;;;;;;;;;5043578;28;20203;-71
2023/12/18 01:09:12;;;;;;;7.20;6.13;;;;;;;;;;5038959;28;20199;-71
2023/12/18 01:11:39;;;;;;;8.03;6.20;;;;;;;;;;5041083;28;20261;-70
2023/12/18 01:14:06;;;;;;;10.63;6.17;;;;;;;;;;5048399;28;20214;-72
2023/12/18 01:16:34;;;;;;;9.30;6.23;;;;;;;;;;5044031;28;21889;-72
2023/12/18 01:19:02;;;;;;;13.60;7.63;;;;;;;;;;5043753;28;20215;-72
2023/12/18 01:21:31;;;;;;;11.83;7.67;;;;;;;;;;5042007;28;20204;-72
2023/12/18 01:23:59;;;;;;;10.17;7.17;;;;;;;;;;5045552;28;20203;-72
2023/12/18 01:26:26;;;;;;;12.07;7.80;;;;;;;;;;5044528;28;20208;-72
2023/12/18 01:28:53;;;;;;;11.00;6.83;;;;;;;;;;5040277;28;20261;-71
2023/12/18 01:31:23;;;;;;;11.00;7.03;;;;;;;;;;5039535;28;20222;-72
2023/12/18 01:33:51;;;;;;;11.53;7.27;;;;;;;;;;5038247;28;20235;-72
2023/12/18 01:36:18;;;;;;;9.17;6.83;;;;;;;;;;5043465;28;20206;-70
2023/12/18 01:38:47;;;;;;;11.03;7.33;;;;;;;;;;5042194;28;20456;-72
2023/12/18 01:41:14;;;;;;;8.77;6.77;;;;;;;;;;5039090;28;20240;-72
2023/12/18 01:43:41;;;;;;;8.90;6.20;;;;;;;;;;5041251;28;20204;-72
2023/12/18 01:46:09;;;;;;;10.87;7.20;;;;;;;;;;5040983;28;20250;-72
2023/12/18 01:48:36;;;;;;;14.40;7.40;;;;;;;;;;5043216;28;20206;-70
2023/12/18 01:51:04;;;;;;;11.00;6.90;;;;;;;;;;5044571;28;20209;-72
2023/12/18 01:53:32;;;;;;;9.20;6.83;;;;;;;;;;5041152;28;20208;-71
2023/12/18 01:56:02;;;;;;;10.83;7.20;;;;;;;;;;5041800;28;20199;-71
2023/12/18 01:58:30;;;;;;;9.57;6.70;;;;;;;;;;5043083;28;20226;-71
2023/12/18 02:00:57;;;;;;;7.33;5.97;;;;;;;;;;5042418;28;20207;-72
2023/12/18 02:03:25;;;;;;;9.77;6.30;;;;;;;;;;5043010;28;20207;-72
2023/12/18 02:05:52;;;;;;;10.50;6.93;;;;;;;;;;5044613;28;20246;-71
2023/12/18 02:08:19;;;;;;;9.17;6.20;;;;;;;;;;5041169;28;20200;-72
2023/12/18 02:10:46;;;;;;;8.67;7.10;;;;;;;;;;5039738;28;20203;-72
2023/12/18 02:13:15;;;;;;;9.90;6.37;;;;;;;;;;5045518;28;20288;-72
2023/12/18 02:15:41;;;;;;;9.73;6.43;;;;;;;;;;5041337;28;20199;-72
2023/12/18 02:18:08;;;;;;;11.37;6.63;;;;;;;;;;5045204;28;20282;-71
2023/12/18 02:20:35;;;;;;;8.80;7.20;;;;;;;;;;5042958;28;20231;-72
2023/12/18 02:23:03;;;;;;;12.00;7.50;;;;;;;;;;5042706;28;20218;-72
2023/12/18 02:25:30;;;;;;;11.63;7.60;;;;;;;;;;5041677;28;20204;-69
2023/12/18 02:27:58;;;;;;;11.13;8.47;;;;;;;;;;5043638;28;20207;-72
2023/12/18 02:30:25;;;;;;;11.93;8.33;;;;;;;;;;5038603;28;20192;-70
2023/12/18 02:32:53;;;;;;;11.87;8.67;;;;;;;;;;5043094;28;20226;-73
2023/12/18 02:35:20;;;;;;;36.37;9.73;;;;;;;;;;5047046;28;20204;-71
2023/12/18 02:37:47;;;;;;;12.13;8.93;;;;;;;;;;5046632;28;20209;-72
2023/12/18 02:40:15;;;;;;;13.40;8.57;;;;;;;;;;5044355;28;20227;-71
2023/12/18 02:42:42;;;;;;;16.87;8.53;;;;;;;;;;5048696;28;20208;-72
2023/12/18 02:45:10;;;;;;;12.70;9.17;;;;;;;;;;5042049;28;20208;-72
2023/12/18 02:47:37;;;;;;;18.10;9.43;;;;;;;;;;5040081;28;20200;-72
2023/12/18 02:50:06;;;;;;;17.53;9.40;;;;;;;;;;5047127;28;20220;-71
2023/12/18 02:52:33;;;;;;;14.23;9.00;;;;;;;;;;5045261;28;20246;-73
2023/12/18 02:55:00;;;;;;;17.90;9.57;;;;;;;;;;5045600;28;20199;-73
2023/12/18 02:57:29;;;;;;;24.67;10.47;;;;;;;;;;5041319;28;20204;-71
2023/12/18 02:59:56;;;;;;;19.17;9.27;;;;;;;;;;5042522;28;20223;-73
2023/12/18 03:02:23;;;;;;;31.17;11.73;;;;;;;;;;5046410;28;20212;-71
2023/12/18 03:04:50;;;;;;;22.30;10.97;;;;;;;;;;5045369;28;20212;-73
2023/12/18 03:07:17;;;;;;;43.47;12.70;;;;;;;;;;5042869;28;20210;-70
2023/12/18 03:09:45;;;;;;;56.73;12.97;;;;;;;;;;5044953;28;20202;-71
2023/12/18 03:12:12;;;;;;;38.83;13.90;;;;;;;;;;5038209;28;20259;-72
2023/12/18 03:14:40;;;;;;;26.07;12.70;;;;;;;;;;5047996;28;20278;-72
2023/12/18 03:17:07;;;;;;;34.30;13.47;;;;;;;;;;5041989;28;20200;-72
2023/12/18 03:19:34;;;;;;;49.20;13.87;;;;;;;;;;5044559;28;20227;-71
2023/12/18 03:22:02;;;;;;;47.13;12.83;;;;;;;;;;5046338;28;20218;-69
2023/12/18 03:24:29;;;;;;;24.07;12.17;;;;;;;;;;5047564;28;20192;-71
2023/12/18 03:26:56;;;;;;;56.43;14.13;;;;;;;;;;5045265;28;20210;-71
2023/12/18 03:29:23;;;;;;;53.60;13.00;;;;;;;;;;5048396;28;20235;-72
2023/12/18 03:31:52;;;;;;;30.13;11.70;;;;;;;;;;5046482;28;20211;-72
2023/12/18 03:34:19;;;;;;;63.73;13.93;;;;;;;;;;5048515;28;20224;-64
2023/12/18 03:36:46;;;;;;;22.47;12.30;;;;;;;;;;5047123;28;20195;-64
2023/12/18 03:39:13;;;;;;;37.03;12.70;;;;;;;;;;5044935;28;20224;-64
2023/12/18 03:41:40;;;;;;;21.57;11.20;;;;;;;;;;5044497;28;20203;-64
2023/12/18 03:44:07;;;;;;;26.73;11.33;;;;;;;;;;5046327;28;20206;-64
2023/12/18 03:46:34;;;;;;;24.30;11.83;;;;;;;;;;5044746;28;20286;-64
2023/12/18 03:49:03;;;;;;;19.83;10.63;;;;;;;;;;5047335;28;20195;-65
2023/12/18 03:51:32;;;;;;;18.47;10.10;;;;;;;;;;5043996;28;20298;-65
2023/12/18 03:53:59;;;;;;;42.77;11.20;;;;;;;;;;5041353;28;20219;-64
2023/12/18 03:56:26;;;;;;;41.23;10.20;;;;;;;;;;5044259;28;20257;-65
2023/12/18 03:58:54;;;;;;;14.77;9.13;;;;;;;;;;5045695;28;20204;-64
2023/12/18 04:01:21;;;;;;;68.37;12.47;;;;;;;;;;5042329;28;20215;-64
2023/12/18 04:03:48;;;;;;;45.97;10.37;;;;;;;;;;5047308;28;20203;-64
2023/12/18 04:06:16;;;;;;;85.90;12.67;;;;;;;;;;5047594;28;20207;-64
2023/12/18 04:08:43;;;;;;;74.07;12.87;;;;;;;;;;5047629;28;20271;-66
2023/12/18 04:11:15;;;;;;;177.50;15.27;;;;;;;;;;5042124;28;20195;-64
2023/12/18 04:13:43;;;;;;;167.07;15.10;;;;;;;;;;5049387;28;20208;-64
2023/12/18 04:16:10;;;;;;;69.53;11.43;;;;;;;;;;5042848;28;20239;-64
2023/12/18 04:18:38;;;;;;;19.43;9.80;;;;;;;;;;5044941;28;20199;-64
2023/12/18 04:21:05;;;;;;;107.73;13.50;;;;;;;;;;5044191;28;20251;-64
2023/12/18 04:23:34;;;;;;;162.37;15.57;;;;;;;;;;5042689;28;20205;-64
2023/12/18 04:26:01;;;;;;;119.13;13.87;;;;;;;;;;5044849;28;20218;-64
2023/12/18 04:28:28;;;;;;;195.87;13.80;;;;;;;;;;5039522;28;20231;-64
2023/12/18 04:30:55;;;;;;;99.07;12.33;;;;;;;;;;5044193;28;20207;-64
2023/12/18 04:33:22;;;;;;;184.70;15.80;;;;;;;;;;5046890;28;20199;-64
2023/12/18 04:35:49;;;;;;;117.40;13.77;;;;;;;;;;5045569;28;20214;-64
2023/12/18 04:38:17;;;;;;;214.10;15.43;;;;;;;;;;5042097;28;20196;-64
2023/12/18 04:40:45;;;;;;;133.73;14.90;;;;;;;;;;5044612;28;20223;-66
2023/12/18 04:43:12;;;;;;;94.00;13.47;;;;;;;;;;5046355;28;20203;-71
2023/12/18 04:45:39;;;;;;;195.60;17.33;;;;;;;;;;5046813;28;20212;-71
2023/12/18 04:48:07;;;;;;;158.00;15.43;;;;;;;;;;5044618;28;20211;-72
2023/12/18 04:50:34;;;;;;;125.20;14.87;;;;;;;;;;5041858;28;20203;-72
2023/12/18 04:53:01;;;;;;;174.47;16.27;;;;;;;;;;5044355;28;20204;-71
2023/12/18 04:55:28;;;;;;;48.47;11.77;;;;;;;;;;5043478;28;20209;-71
2023/12/18 04:57:57;;;;;;;49.30;12.17;;;;;;;;;;5044182;28;20225;-71
2023/12/18 05:00:25;;;;;;;124.30;15.37;;;;;;;;;;5043185;28;20219;-70
2023/12/18 05:02:52;;;;;;;148.13;15.43;;;;;;;;;;5040829;28;20234;-71
2023/12/18 05:05:19;;;;;;;146.73;16.83;;;;;;;;;;5040677;28;20203;-71
2023/12/18 05:07:46;;;;;;;20.20;10.90;;;;;;;;;;5040497;28;20203;-72
2023/12/18 05:10:13;;;;;;;76.43;12.07;;;;;;;;;;5040972;28;20198;-71
2023/12/18 05:12:40;;;;;;;125.70;15.77;;;;;;;;;;5043667;28;20205;-72
2023/12/18 05:15:09;;;;;;;221.93;16.77;;;;;;;;;;5045119;28;20209;-71
2023/12/18 05:17:37;;;;;;;156.03;14.83;;;;;;;;;;5043205;28;20200;-71
2023/12/18 05:20:06;;;;;;;122.40;13.97;;;;;;;;;;5045706;28;20230;-72
2023/12/18 05:22:34;;;;;;;219.93;18.50;;;;;;;;;;5044957;28;20242;-71
2023/12/18 05:25:01;;;;;;;304.93;17.63;;;;;;;;;;5042317;28;20200;-70
2023/12/18 05:27:28;;;;;;;184.67;17.00;;;;;;;;;;5037183;28;20213;-70
2023/12/18 05:29:55;;;;;;;77.20;12.03;;;;;;;;;;5040260;28;20234;-69
2023/12/18 05:32:23;;;;;;;184.87;16.17;;;;;;;;;;5042702;28;20204;-71
2023/12/18 05:34:50;;;;;;;196.37;17.10;;;;;;;;;;5043771;28;20211;-71
2023/12/18 05:37:18;;;;;;;239.60;18.70;;;;;;;;;;5041845;28;20211;-70
2023/12/18 05:39:45;;;;;;;310.17;19.03;;;;;;;;;;5041895;28;20227;-71
2023/12/18 05:42:12;;;;;;;206.57;18.17;;;;;;;;;;5041795;28;20207;-69
2023/12/18 05:44:39;;;;;;;114.13;14.10;;;;;;;;;;5043394;28;20207;-71
2023/12/18 05:47:06;;;;;;;146.57;14.90;;;;;;;;;;5042347;28;20212;-71
2023/12/18 05:49:35;;;;;;;39.23;10.50;;;;;;;;;;5046010;28;20203;-71
2023/12/18 05:52:02;;;;;;;50.97;11.17;;;;;;;;;;5044903;28;20204;-71
2023/12/18 05:54:29;;;;;;;77.47;12.17;;;;;;;;;;5044469;28;20218;-71
2023/12/18 05:56:56;;;;;;;220.43;16.17;;;;;;;;;;5041365;28;20293;-70
2023/12/18 05:59:23;;;;;;;145.93;15.77;;;;;;;;;;5043667;28;20562;-71
2023/12/18 06:01:50;;;;;;;104.37;13.20;;;;;;;;;;5040565;28;20205;-72
2023/12/18 06:04:17;;;;;;;123.60;13.70;;;;;;;;;;5044854;28;20214;-71
2023/12/18 06:06:46;;;;;;;46.77;11.83;;;;;;;;;;5043230;28;20195;-71
2023/12/18 06:09:13;;;;;;;130.73;14.73;;;;;;;;;;5041113;28;20200;-72
2023/12/18 06:11:40;;;;;;;17.87;10.07;;;;;;;;;;5050868;28;20210;-71
2023/12/18 06:14:07;;;;;;;107.13;14.43;;;;;;;;;;5043421;28;20208;-72
2023/12/18 06:16:34;;;;;;;121.53;13.83;;;;;;;;;;5036459;28;20298;-71
2023/12/18 06:19:01;;;;;;;137.37;15.60;;;;;;;;;;5045501;28;20211;-71
2023/12/18 06:21:28;;;;;;;141.57;14.20;;;;;;;;;;5049763;28;20306;-71
2023/12/18 06:23:57;;;;;;;105.53;14.30;;;;;;;;;;5048788;28;20202;-72
2023/12/18 06:26:24;;;;;;;159.43;13.77;;;;;;;;;;5047198;28;20212;-71
2023/12/18 06:28:51;;;;;;;240.53;16.73;;;;;;;;;;5048398;28;20239;-71
2023/12/18 06:31:18;;;;;;;297.30;17.00;;;;;;;;;;5047940;28;20202;-72
2023/12/18 06:33:46;;;;;;;209.37;14.87;;;;;;;;;;5046238;28;20303;-72
2023/12/18 06:36:16;;;;;;;107.03;13.50;;;;;;;;;;5046616;28;20214;-72
2023/12/18 06:38:43;;;;;;;80.03;12.30;;;;;;;;;;5042660;28;20234;-71
2023/12/18 06:41:12;;;;;;;41.80;10.43;;;;;;;;;;5050056;28;20214;-72
2023/12/18 06:43:40;;;;;;;27.33;10.27;;;;;;;;;;5045413;28;20211;-72
2023/12/18 06:46:07;;;;;;;114.23;15.20;;;;;;;;;;5047667;28;20203;-72
2023/12/18 06:48:34;;;;;;;162.83;14.53;;;;;;;;;;5044805;28;20200;-72
2023/12/18 06:51:01;;;;;;;96.13;12.30;;;;;;;;;;5050807;28;20208;-72
2023/12/18 06:53:28;;;;;;;130.83;14.60;;;;;;;;;;5046750;28;20206;-72
2023/12/18 06:55:56;;;;;;;85.47;12.20;;;;;;;;;;5046890;28;20223;-72
2023/12/18 06:58:25;;;;;;;50.53;10.70;;;;;;;;;;5045634;28;20345;-72
2023/12/18 07:00:52;;;;;;;91.67;13.00;;;;;;;;;;5045533;28;20231;-73
2023/12/18 07:03:19;;;;;;;33.90;10.67;;;;;;;;;;5043396;28;20411;-72
2023/12/18 07:05:47;;;;;;;24.30;10.53;;;;;;;;;;5044893;28;20199;-71
2023/12/18 07:08:14;;;;;;;14.43;10.03;;;;;;;;;;5047646;28;20260;-72
2023/12/18 07:10:41;;;;;;;42.70;10.67;;;;;;;;;;5048391;28;20206;-72
2023/12/18 07:13:08;;;;;;;69.83;12.93;;;;;;;;;;5042687;28;20203;-70
2023/12/18 07:15:37;;;;;;;64.13;13.47;;;;;;;;;;5042568;28;20278;-69
2023/12/18 07:18:07;;;;;;;18.33;10.53;;;;;;;;;;5042564;28;21483;-72
2023/12/18 07:20:34;;;;;;;190.00;15.53;;;;;;;;;;5040877;28;20223;-70
2023/12/18 07:23:01;;;;;;;43.23;10.70;;;;;;;;;;5041325;28;20474;-69
2023/12/18 07:25:28;;;;;;;185.33;14.50;;;;;;;;;;5041182;28;20199;-71
2023/12/18 07:27:55;;;;;;;84.87;11.57;;;;;;;;;;5043590;28;20211;-71
2023/12/18 07:30:22;;;;;;;73.37;11.27;;;;;;;;;;5041957;28;20203;-71
2023/12/18 07:32:52;;;;;;;128.57;13.50;;;;;;;;;;5044105;28;20213;-71
2023/12/18 07:35:19;;;;;;;36.20;10.43;;;;;;;;;;5045930;28;20223;-71
2023/12/18 07:37:46;;;;;;;83.47;13.00;;;;;;;;;;5038930;28;20222;-71
2023/12/18 07:40:13;;;;;;;74.10;13.10;;;;;;;;;;5038329;28;20199;-71
2023/12/18 07:42:40;;;;;;;44.07;9.93;;;;;;;;;;5034597;28;20208;-69
2023/12/18 07:45:08;;;;;;;96.70;13.17;;;;;;;;;;5039484;28;20215;-69
2023/12/18 07:47:37;;;;;;;172.47;17.07;;;;;;;;;;5036209;28;20207;-71
2023/12/18 07:50:06;;;;;;;21.00;10.23;;;;;;;;;;5038502;28;20213;-71
2023/12/18 07:52:34;;;;;;;132.33;14.37;;;;;;;;;;5036294;28;20238;-71
2023/12/18 07:55:01;;;;;;;128.90;13.73;;;;;;;;;;5037036;28;20203;-71
2023/12/18 07:57:28;;;;;;;13.97;9.93;;;;;;;;;;5035316;28;20253;-71
2023/12/18 07:59:55;;;;;;;26.27;11.83;;;;;;;;;;5038748;28;20211;-71
2023/12/18 08:02:22;;;;;;;16.57;11.80;;;;;;;;;;5035422;28;20218;-70
2023/12/18 08:04:50;;;;;;;39.17;13.07;;;;;;;;;;5034797;28;20200;-71
2023/12/18 08:07:19;;;;;;;53.97;13.43;;;;;;;;;;5036925;28;20289;-71
2023/12/18 08:09:46;;;;;;;24.97;11.53;;;;;;;;;;5036398;28;20200;-71
2023/12/18 08:12:14;;;;;;;25.47;11.90;;;;;;;;;;5039879;28;20215;-68
2023/12/18 08:14:44;;;;;;;17.77;11.23;;;;;;;;;;5037930;28;20227;-70
2023/12/18 08:17:11;;;;;;;43.53;14.03;;;;;;;;;;5033557;28;20203;-70
2023/12/18 08:19:39;;;;;;;50.50;13.67;;;;;;;;;;5034440;28;20199;-68
2023/12/18 08:22:06;;;;;;;24.30;12.10;;;;;;;;;;5032262;28;20220;-68
2023/12/18 08:24:34;;;;;;;34.33;12.17;;;;;;;;;;5039066;28;20234;-71
2023/12/18 08:27:02;;;;;;;18.73;11.00;;;;;;;;;;5036471;28;20215;-68
2023/12/18 08:29:29;;;;;;;30.80;14.00;;;;;;;;;;5037301;28;20267;-71
2023/12/18 08:31:55;;;;;;;19.00;12.63;;;;;;;;;;5034045;28;20204;-71
2023/12/18 08:34:22;;;;;;;17.27;12.23;;;;;;;;;;5037001;28;20249;-71
2023/12/18 08:36:49;;;;;;;25.27;14.27;;;;;;;;;;5033226;28;20225;-71
2023/12/18 08:39:17;;;;;;;23.10;13.37;;;;;;;;;;5035799;28;20196;-70
2023/12/18 08:41:47;;;;;;;17.30;10.80;;;;;;;;;;5032361;28;20226;-71
2023/12/18 08:44:14;;;;;;;35.30;12.00;;;;;;;;;;5032322;28;20335;-69
2023/12/18 08:46:41;;;;;;;33.47;12.93;;;;;;;;;;5037058;28;20256;-71
2023/12/18 08:49:08;;;;;;;33.57;12.00;;;;;;;;;;5033352;28;20199;-71
2023/12/18 08:51:35;;;;;;;22.23;11.90;;;;;;;;;;5037393;28;20211;-68
2023/12/18 08:54:04;;;;;;;15.83;11.40;;;;;;;;;;5035027;28;22112;-70
2023/12/18 08:56:31;;;;;;;54.80;13.30;;;;;;;;;;5037777;28;20208;-71
2023/12/18 08:59:00;;;;;;;93.63;13.83;;;;;;;;;;5042821;28;20203;-70
2023/12/18 09:01:27;;;;;;;60.63;12.70;;;;;;;;;;5041585;28;20230;-72
2023/12/18 09:03:54;;;;;;;40.03;11.80;;;;;;;;;;5036012;28;20208;-71
2023/12/18 09:06:21;;;;;;;12.70;10.37;;;;;;;;;;5039974;28;20203;-71
2023/12/18 09:08:48;;;;;;;20.17;11.43;;;;;;;;;;5038168;28;20262;-68
2023/12/18 09:11:16;;;;;;;48.13;13.20;;;;;;;;;;5036662;28;20199;-72
2023/12/18 09:13:43;;;;;;;36.27;11.67;;;;;;;;;;5038815;28;20219;-71
2023/12/18 09:16:12;;;;;;;47.90;12.93;;;;;;;;;;5028399;28;20214;-72
2023/12/18 09:18:39;;;;;;;37.27;12.40;;;;;;;;;;5044074;28;20208;-71
2023/12/18 09:21:07;;;;;;;37.77;12.60;;;;;;;;;;5041823;28;20219;-71
2023/12/18 09:23:34;;;;;;;54.87;14.10;;;;;;;;;;5039850;28;20204;-65
2023/12/18 09:26:02;;;;;;;14.30;10.53;;;;;;;;;;5036530;28;20211;-64
2023/12/18 09:28:29;;;;;;;48.33;12.73;;;;;;;;;;5041024;28;20231;-63
2023/12/18 09:30:56;;;;;;;18.93;11.60;;;;;;;;;;5032180;28;20196;-65
2023/12/18 09:33:24;;;;;;;99.60;13.50;;;;;;;;;;5035230;28;20199;-63
2023/12/18 09:35:52;;;;;;;29.07;11.10;;;;;;;;;;5040845;28;20213;-65
2023/12/18 09:38:21;;;;;;;56.47;12.33;;;;;;;;;;5040519;28;20294;-63
2023/12/18 09:40:48;;;;;;;48.43;12.03;;;;;;;;;;5039566;28;20200;-64
2023/12/18 09:43:17;;;;;;;52.43;12.67;;;;;;;;;;5040469;28;20203;-64
2023/12/18 09:45:45;;;;;;;99.73;14.10;;;;;;;;;;5042742;28;20207;-63
2023/12/18 09:48:12;;;;;;;70.77;12.63;;;;;;;;;;5044845;28;20204;-65
2023/12/18 09:50:41;;;;;;;43.13;12.77;;;;;;;;;;5040185;28;20234;-64
2023/12/18 09:53:09;;;;;;;40.10;11.63;;;;;;;;;;5045356;28;20210;-63
2023/12/18 09:55:36;;;;;;;24.73;11.57;;;;;;;;;;5041574;28;20211;-64
2023/12/18 09:58:03;;;;;;;21.50;11.10;;;;;;;;;;5041682;28;20200;-64
2023/12/18 10:00:30;;;;;;;12.30;10.20;;;;;;;;;;5042258;28;20592;-63
2023/12/18 10:02:58;;;;;;;14.47;11.13;;;;;;;;;;5042865;28;20218;-64
2023/12/18 10:05:26;;;;;;;16.60;10.50;;;;;;;;;;5042673;28;20204;-65
2023/12/18 10:07:55;;;;;;;15.03;10.30;;;;;;;;;;5041320;28;20289;-64
2023/12/18 10:10:22;;;;;;;12.93;10.57;;;;;;;;;;5044103;28;20214;-64
2023/12/18 10:12:49;;;;;;;17.23;10.53;;;;;;;;;;5037487;28;20207;-64
2023/12/18 10:15:17;;;;;;;18.43;10.63;;;;;;;;;;5035215;28;20202;-64
2023/12/18 10:17:44;;;;;;;12.97;10.40;;;;;;;;;;5036161;28;20431;-63
2023/12/18 10:20:12;;;;;;;13.87;10.67;;;;;;;;;;5042742;28;20203;-64
2023/12/18 10:22:40;;;;;;;13.70;10.00;;;;;;;;;;5042395;28;20304;-64
2023/12/18 10:25:10;;;;;;;13.23;10.30;;;;;;;;;;5043830;28;20542;-64
2023/12/18 10:27:38;;;;;;;14.10;10.43;;;;;;;;;;5045006;28;20207;-64
2023/12/18 10:30:06;;;;;;;12.50;10.20;;;;;;;;;;5044868;28;20237;-64
2023/12/18 10:32:35;;;;;;;12.20;9.93;;;;;;;;;;5043078;28;20193;-63
2023/12/18 10:35:03;;;;;;;14.83;10.83;;;;;;;;;;5043871;28;20201;-71
2023/12/18 10:37:31;;;;;;;13.10;10.37;;;;;;;;;;5038110;28;20200;-71
2023/12/18 10:40:03;;;;;;;13.57;11.07;;;;;;;;;;5038465;28;20208;-71
2023/12/18 10:42:33;;;;;;;14.03;10.10;;;;;;;;;;5041898;28;20227;-71
2023/12/18 10:45:01;;;;;;;12.23;10.27;;;;;;;;;;5042233;28;20212;-70
2023/12/18 10:47:29;;;;;;;15.17;9.63;;;;;;;;;;5039401;28;20414;-71
2023/12/18 10:49:58;;;;;;;12.93;10.33;;;;;;;;;;5038749;28;20258;-71
2023/12/18 10:52:25;;;;;;;12.47;10.47;;;;;;;;;;5034175;28;20204;-70
2023/12/18 10:54:53;;;;;;;31.27;12.20;;;;;;;;;;5035104;28;20208;-70
2023/12/18 10:57:23;;;;;;;20.50;11.37;;;;;;;;;;5037032;28;20269;-69
2023/12/18 10:59:51;;;;;;;29.20;11.47;;;;;;;;;;5036430;28;20294;-70
2023/12/18 11:02:19;;;;;;;18.83;10.90;;;;;;;;;;5035089;28;20238;-70
2023/12/18 11:04:46;;;;;;;35.40;11.93;;;;;;;;;;5040131;28;20197;-70
2023/12/18 11:07:14;;;;;;;31.20;11.33;;;;;;;;;;5038612;28;20211;-70
2023/12/18 11:09:41;;;;;;;25.93;11.23;;;;;;;;;;5041228;28;20204;-70
2023/12/18 11:12:09;;;;;;;16.33;10.60;;;;;;;;;;5036245;28;20211;-69
2023/12/18 11:14:41;;;;;;;16.57;10.77;;;;;;;;;;5041939;28;20220;-73
2023/12/18 11:17:16;;;;;;;17.30;10.97;;;;;;;;;;5036914;28;20203;-71
2023/12/18 11:19:45;;;;;;;19.43;11.30;;;;;;;;;;5037157;28;20206;-72
2023/12/18 11:22:16;;;;;;;12.07;10.20;;;;;;;;;;5036009;28;20223;-71
2023/12/18 11:24:46;;;;;;;14.80;11.50;;;;;;;;;;5037650;28;20219;-68
2023/12/18 11:27:14;;;;;;;16.13;11.03;;;;;;;;;;5018374;28;20216;-71
2023/12/18 11:29:43;;;;;;;13.67;11.20;;;;;;;;;;5034361;28;20235;-68
2023/12/18 11:32:13;;;;;;;15.90;11.53;;;;;;;;;;5028573;28;20203;-70
2023/12/18 11:34:41;;;;;;;19.53;12.03;;;;;;;;;;5027951;28;20200;-68
2023/12/18 11:37:09;;;;;;;16.47;13.13;;;;;;;;;;5028700;28;20218;-70
2023/12/18 11:39:39;;;;;;;28.50;12.70;;;;;;;;;;5033075;28;20204;-69
2023/12/18 11:42:06;;;;;;;24.87;12.57;;;;;;;;;;5034385;28;20215;-71
2023/12/18 11:44:35;;;;;;;21.03;12.53;;;;;;;;;;5034832;28;20203;-71
2023/12/18 11:47:02;;;;;;;32.00;12.20;;;;;;;;;;5036504;28;20200;-69
2023/12/18 11:49:31;;;;;;;22.00;12.73;;;;;;;;;;5035460;28;20209;-70
2023/12/18 11:51:59;;;;;;;44.80;13.00;;;;;;;;;;5039438;28;20200;-71
2023/12/18 11:54:27;;;;;;;21.67;12.50;;;;;;;;;;5035466;28;20213;-71
2023/12/18 11:56:57;;;;;;;25.37;12.27;;;;;;;;;;5038031;28;20208;-70
2023/12/18 11:59:26;;;;;;;14.67;11.37;;;;;;;;;;5037098;28;20218;-71
2023/12/18 12:01:54;;;;;;;18.77;11.90;;;;;;;;;;5041933;28;20346;-71
2023/12/18 12:04:21;;;;;;;17.00;12.37;;;;;;;;;;5043003;28;20197;-71
2023/12/18 12:06:50;;;;;;;22.93;12.13;;;;;;;;;;5046597;28;20211;-71
2023/12/18 12:09:17;;;;;;;18.83;12.40;;;;;;;;;;5045385;28;20200;-71
2023/12/18 12:11:45;;;;;;;17.60;11.77;;;;;;;;;;5048183;28;20192;-71
2023/12/18 12:14:12;;;;;;;14.20;11.80;;;;;;;;;;5047418;28;20207;-68
2023/12/18 12:16:39;;;;;;;16.43;12.50;;;;;;;;;;5044585;28;20214;-71
2023/12/18 12:19:06;;;;;;;14.97;11.93;;;;;;;;;;5041999;28;20208;-71
2023/12/18 12:21:34;;;;;;;15.90;12.70;;;;;;;;;;5044102;28;20202;-70
2023/12/18 12:24:04;;;;;;;14.63;11.77;;;;;;;;;;5045166;28;20207;-71
2023/12/18 12:26:31;;;;;;;16.50;12.37;;;;;;;;;;5036941;28;20208;-68
2023/12/18 12:28:58;;;;;;;17.67;13.10;;;;;;;;;;5045785;28;20332;-70
2023/12/18 12:31:25;;;;;;;15.37;12.70;;;;;;;;;;5036178;28;20204;-70
2023/12/18 12:33:53;;;;;;;17.47;13.50;;;;;;;;;;5046683;28;20206;-71
2023/12/18 12:36:22;;;;;;;16.17;12.47;;;;;;;;;;5044212;28;20200;-70
2023/12/18 12:38:49;;;;;;;12.47;11.13;;;;;;;;;;5043350;28;20291;-70
2023/12/18 12:41:17;;;;;;;15.27;12.73;;;;;;;;;;5045080;28;20195;-68
2023/12/18 12:43:45;;;;;;;16.53;12.67;;;;;;;;;;5044100;28;20224;-70
2023/12/18 12:46:12;;;;;;;20.47;13.53;;;;;;;;;;5045210;28;20206;-71
2023/12/18 12:48:39;;;;;;;16.87;13.23;;;;;;;;;;5045911;28;20196;-71
2023/12/18 12:51:07;;;;;;;20.53;14.13;;;;;;;;;;5043371;28;20206;-71
2023/12/18 12:53:39;;;;;;;16.40;13.30;;;;;;;;;;5042988;28;20224;-69
2023/12/18 12:56:07;;;;;;;15.53;12.30;;;;;;;;;;5043651;28;20207;-69
2023/12/18 12:58:36;;;;;;;17.37;14.13;;;;;;;;;;5043800;28;20211;-69
2023/12/18 13:01:06;;;;;;;21.47;15.17;;;;;;;;;;5047965;28;20211;-71
2023/12/18 13:03:33;;;;;;;18.53;14.03;;;;;;;;;;5039987;28;20246;-70
2023/12/18 13:06:00;;;;;;;19.50;14.57;;;;;;;;;;5040031;28;20211;-70
2023/12/18 13:08:27;;;;;;;15.67;13.43;;;;;;;;;;5041867;28;20211;-71
2023/12/18 13:10:55;;;;;;;17.50;14.80;;;;;;;;;;5042874;28;20204;-71
2023/12/18 13:13:22;;;;;;;26.03;13.97;;;;;;;;;;5040121;28;20207;-70
2023/12/18 13:15:51;;;;;;;23.53;14.27;;;;;;;;;;5041800;28;20199;-71
2023/12/18 13:18:19;;;;;;;20.50;12.80;;;;;;;;;;5042522;28;20210;-71
2023/12/18 13:20:46;;;;;;;14.43;12.47;;;;;;;;;;5046476;28;20254;-71
2023/12/18 13:23:16;;;;;;;19.47;14.57;;;;;;;;;;5044906;28;20207;-70
2023/12/18 13:25:43;;;;;;;20.10;13.97;;;;;;;;;;5031075;28;20215;-70
2023/12/18 13:28:11;;;;;;;32.03;14.60;;;;;;;;;;5044719;28;20232;-69
2023/12/18 13:30:38;;;;;;;36.73;15.40;;;;;;;;;;5043484;28;20215;-70
2023/12/18 13:33:06;;;;;;;21.20;14.43;;;;;;;;;;5044250;28;20419;-70
2023/12/18 13:35:34;;;;;;;22.40;14.63;;;;;;;;;;5042131;28;20289;-70
2023/12/18 13:38:01;;;;;;;20.90;14.43;;;;;;;;;;5044949;28;20199;-69
2023/12/18 13:40:29;;;;;;;21.30;14.37;;;;;;;;;;5042626;28;20269;-69
2023/12/18 13:42:56;;;;;;;21.37;13.53;;;;;;;;;;5036949;28;20224;-70
2023/12/18 13:45:23;;;;;;;25.57;14.83;;;;;;;;;;5043983;28;20202;-69
2023/12/18 13:47:51;;;;;;;15.13;12.97;;;;;;;;;;5041359;28;20207;-69
2023/12/18 13:50:19;;;;;;;17.20;13.73;;;;;;;;;;5042473;28;20195;-70
2023/12/18 13:52:48;;;;;;;18.97;14.63;;;;;;;;;;5042224;28;20207;-70
2023/12/18 13:55:15;;;;;;;28.70;16.40;;;;;;;;;;5040993;28;20207;-70
2023/12/18 13:57:43;;;;;;;19.03;14.13;;;;;;;;;;5043053;28;20195;-70
2023/12/18 14:00:11;;;;;;;30.53;15.30;;;;;;;;;;5042486;28;20199;-69
2023/12/18 14:02:38;;;;;;;24.23;15.13;;;;;;;;;;5043202;28;20251;-70
2023/12/18 14:05:06;;;;;;;23.53;14.80;;;;;;;;;;5041054;28;20204;-70
2023/12/18 14:07:35;;;;;;;24.27;16.53;;;;;;;;;;5041758;28;20196;-70
2023/12/18 14:10:03;;;;;;;21.40;15.30;;;;;;;;;;5041714;28;20303;-68
2023/12/18 14:12:30;;;;;;;24.53;16.43;;;;;;;;;;5045015;28;20226;-69
2023/12/18 14:14:57;;;;;;;30.80;16.40;;;;;;;;;;5042411;28;20212;-70
2023/12/18 14:17:24;;;;;;;23.40;16.57;;;;;;;;;;5042917;28;20691;-69
2023/12/18 14:19:51;;;;;;;23.10;16.20;;;;;;;;;;5038000;28;20214;-69